Time;durP1;ratioP1;P1;durP2;ratioP2;P2;SDS_P1;SDS_P2;PMS_P1;PMS_P2;Temp;Humidity;BMP_temperature;BMP_pressure;BME280_temperature;BME280_humidity;BME280_pressure;Samples;Min_cycle;Max_cycle;Signal;HPM_P1;HPM_P2
2023/02/23 00:02:11;;;;;;;23.13;16.07;;;9.40;99.90;;;;;;4923001;29;20470;-72
2023/02/23 00:04:37;;;;;;;23.80;14.57;;;9.50;99.90;;;;;;4927676;28;20840;-72
2023/02/23 00:07:05;;;;;;;23.60;15.10;;;9.50;99.90;;;;;;4931817;28;20459;-71
2023/02/23 00:09:39;;;;;;;23.27;14.73;;;9.50;99.90;;;;;;4925948;29;20282;-71
2023/02/23 00:12:09;;;;;;;28.23;15.20;;;9.50;99.90;;;;;;4914223;29;20470;-71
2023/02/23 00:14:39;;;;;;;25.57;15.27;;;9.50;99.90;;;;;;4938732;28;20471;-72
2023/02/23 00:17:12;;;;;;;29.07;14.77;;;9.50;99.90;;;;;;4919315;29;20973;-72
2023/02/23 00:19:38;;;;;;;30.00;16.20;;;9.50;99.90;;;;;;4927874;28;20835;-71
2023/02/23 00:22:05;;;;;;;25.23;13.93;;;9.50;99.90;;;;;;4923310;29;20462;-71
2023/02/23 00:24:30;;;;;;;28.27;15.87;;;9.50;99.90;;;;;;4931676;29;20227;-71
2023/02/23 00:26:56;;;;;;;23.03;14.97;;;9.50;99.90;;;;;;4929563;28;20495;-71
2023/02/23 00:29:26;;;;;;;29.10;15.90;;;9.50;99.90;;;;;;4916899;29;20212;-70
2023/02/23 00:31:54;;;;;;;24.60;14.10;;;9.40;99.90;;;;;;4928478;28;20215;-71
2023/02/23 00:34:22;;;;;;;24.20;15.50;;;9.50;99.90;;;;;;4940992;28;20463;-71
2023/02/23 00:36:53;;;;;;;26.23;15.63;;;9.50;99.90;;;;;;4931316;28;20450;-72
2023/02/23 00:39:20;;;;;;;23.83;14.03;;;9.50;99.90;;;;;;4915645;29;20559;-71
2023/02/23 00:41:47;;;;;;;22.77;14.63;;;9.50;99.90;;;;;;4914881;29;20463;-71
2023/02/23 00:44:14;;;;;;;22.67;13.53;;;9.50;99.90;;;;;;4932877;28;20619;-72
2023/02/23 00:46:42;;;;;;;24.00;15.23;;;9.50;99.90;;;;;;4910721;28;20901;-70
2023/02/23 00:49:09;;;;;;;30.17;15.67;;;9.50;99.90;;;;;;4931764;29;20467;-71
2023/02/23 00:51:36;;;;;;;22.90;13.07;;;9.50;99.90;;;;;;4913121;29;20524;-72
2023/02/23 00:54:02;;;;;;;21.70;13.10;;;9.50;99.90;;;;;;4914250;29;20468;-71
2023/02/23 00:56:28;;;;;;;23.43;14.70;;;9.50;99.90;;;;;;4953441;28;20459;-71
2023/02/23 00:58:55;;;;;;;25.70;14.33;;;9.50;99.90;;;;;;4940972;28;20462;-72
2023/02/23 01:01:21;;;;;;;23.30;15.30;;;9.60;99.90;;;;;;4943056;28;20230;-71
2023/02/23 01:03:51;;;;;;;27.60;15.77;;;9.60;99.90;;;;;;4923504;29;20455;-71
2023/02/23 01:06:18;;;;;;;25.43;14.73;;;9.60;99.90;;;;;;4931136;29;20475;-72
2023/02/23 01:08:49;;;;;;;20.73;13.00;;;9.60;99.90;;;;;;4925269;28;20456;-71
2023/02/23 01:11:21;;;;;;;24.63;14.17;;;9.60;99.90;;;;;;4924703;29;20462;-71
2023/02/23 01:13:50;;;;;;;24.23;15.33;;;9.60;99.90;;;;;;4922927;29;20973;-71
2023/02/23 01:16:20;;;;;;;23.27;14.37;;;9.60;99.90;;;;;;4928420;29;20482;-71
2023/02/23 01:18:47;;;;;;;22.97;15.63;;;9.60;99.90;;;;;;4926916;29;20477;-71
2023/02/23 01:21:17;;;;;;;27.00;14.37;;;9.60;99.90;;;;;;4927448;29;20490;-71
2023/02/23 01:23:42;;;;;;;26.20;14.97;;;9.60;99.90;;;;;;4930636;29;21016;-71
2023/02/23 01:26:20;;;;;;;23.00;15.07;;;9.60;99.90;;;;;;4926393;28;20554;-71
2023/02/23 01:28:49;;;;;;;28.93;14.60;;;9.50;99.90;;;;;;4944886;28;20785;-71
2023/02/23 01:31:17;;;;;;;29.13;16.30;;;9.50;99.90;;;;;;4926021;29;20479;-72
2023/02/23 01:33:43;;;;;;;24.70;15.00;;;9.50;99.90;;;;;;4923327;29;20507;-71
2023/02/23 01:36:08;;;;;;;27.47;16.90;;;9.50;99.90;;;;;;4947056;28;20456;-71
2023/02/23 01:38:34;;;;;;;31.07;17.20;;;9.50;99.90;;;;;;4914807;29;20227;-72
2023/02/23 01:41:00;;;;;;;32.90;15.17;;;9.50;99.90;;;;;;4931494;29;20230;-71
2023/02/23 01:43:25;;;;;;;29.57;16.83;;;9.50;99.90;;;;;;4915842;29;20306;-72
2023/02/23 01:45:59;;;;;;;27.70;15.63;;;9.50;99.90;;;;;;4924985;29;20226;-71
2023/02/23 01:48:33;;;;;;;24.23;14.97;;;9.60;99.90;;;;;;4929037;28;20306;-71
2023/02/23 01:51:11;;;;;;;28.50;17.33;;;9.60;99.90;;;;;;4917740;29;20471;-72
2023/02/23 01:53:42;;;;;;;22.37;14.10;;;9.50;99.90;;;;;;4926262;28;20467;-72
2023/02/23 01:56:13;;;;;;;25.90;15.70;;;9.50;99.90;;;;;;4914247;29;20472;-71
2023/02/23 01:58:43;;;;;;;25.57;14.97;;;9.50;99.90;;;;;;4933197;28;20825;-72
2023/02/23 02:01:10;;;;;;;22.40;14.20;;;9.60;99.90;;;;;;4920370;29;20476;-72
2023/02/23 02:03:44;;;;;;;22.33;14.80;;;9.60;99.90;;;;;;4910260;29;20507;-71
2023/02/23 02:06:13;;;;;;;29.80;16.07;;;9.60;99.90;;;;;;4921157;29;20887;-71
2023/02/23 02:08:45;;;;;;;28.37;14.73;;;9.60;99.90;;;;;;4911349;29;20474;-71
2023/02/23 02:11:24;;;;;;;26.90;13.27;;;9.60;99.90;;;;;;4928125;29;20976;-71
2023/02/23 02:13:57;;;;;;;24.63;14.80;;;9.60;99.90;;;;;;4906025;29;20816;-71
2023/02/23 02:16:46;;;;;;;24.10;14.73;;;9.60;99.90;;;;;;4918604;29;20466;-71
2023/02/23 02:19:20;;;;;;;25.57;15.07;;;9.60;99.90;;;;;;4930426;29;20768;-71
2023/02/23 02:22:07;;;;;;;26.50;14.97;;;9.60;99.90;;;;;;4936571;28;20455;-71
2023/02/23 02:25:10;;;;;;;23.10;13.07;;;9.60;99.90;;;;;;4920394;29;20472;-71
2023/02/23 02:27:57;;;;;;;26.80;15.00;;;9.60;99.90;;;;;;4905681;29;20517;-70
2023/02/23 02:31:06;;;;;;;22.17;14.20;;;9.60;99.90;;;;;;4920920;29;20478;-71
2023/02/23 02:34:25;;;;;;;25.70;14.87;;;9.50;99.90;;;;;;4908078;28;20463;-72
2023/02/23 02:37:23;;;;;;;29.60;15.40;;;9.60;99.90;;;;;;4890662;29;20519;-70
2023/02/23 02:40:13;;;;;;;24.97;14.90;;;9.60;99.90;;;;;;4906592;29;20464;-72
2023/02/23 02:43:00;;;;;;;21.77;14.20;;;9.60;99.90;;;;;;4916584;29;20459;-71
2023/02/23 02:45:29;;;;;;;22.30;14.27;;;9.50;99.90;;;;;;4929341;28;20507;-71
2023/02/23 02:48:29;;;;;;;29.83;15.63;;;9.50;99.90;;;;;;4927596;29;20534;-72
2023/02/23 02:51:23;;;;;;;25.33;15.90;;;9.60;99.90;;;;;;4924234;29;20472;-72
2023/02/23 02:54:20;;;;;;;25.37;14.00;;;9.60;99.90;;;;;;4916580;28;20538;-71
2023/02/23 02:56:48;;;;;;;28.00;16.50;;;9.60;99.90;;;;;;4925538;28;20443;-71
2023/02/23 04:17:34;;;;;;;26.43;13.13;;;9.70;99.90;;;;;;4940651;28;20482;-71
2023/02/23 04:20:01;;;;;;;24.57;13.90;;;9.70;99.90;;;;;;4913240;29;20486;-71
2023/02/23 04:22:27;;;;;;;21.27;14.30;;;9.70;99.90;;;;;;4923227;29;20497;-72
2023/02/23 04:24:53;;;;;;;24.30;14.70;;;9.60;99.90;;;;;;4941831;28;21242;-71
2023/02/23 04:27:19;;;;;;;20.77;14.20;;;9.60;99.90;;;;;;4917602;29;20625;-71
2023/02/23 04:29:44;;;;;;;23.00;13.30;;;9.70;99.90;;;;;;4926641;28;20242;-72
2023/02/23 04:32:14;;;;;;;21.97;13.67;;;9.70;99.90;;;;;;4948338;28;20231;-71
2023/02/23 04:34:40;;;;;;;19.50;12.20;;;9.70;99.90;;;;;;4924473;29;20227;-70
2023/02/23 04:37:05;;;;;;;27.10;14.80;;;9.70;99.90;;;;;;4920087;29;20467;-72
2023/02/23 04:39:31;;;;;;;21.83;13.07;;;9.70;99.90;;;;;;4921355;28;20224;-73
2023/02/23 04:41:57;;;;;;;18.50;12.97;;;9.60;99.90;;;;;;4923467;29;20363;-72
2023/02/23 04:44:22;;;;;;;24.00;13.07;;;9.70;99.90;;;;;;4914079;29;20661;-71
2023/02/23 04:46:48;;;;;;;25.87;14.50;;;9.70;99.90;;;;;;4921439;29;20229;-72
2023/02/23 04:49:14;;;;;;;19.23;11.83;;;9.60;99.90;;;;;;4929061;28;20258;-72
2023/02/23 04:51:39;;;;;;;24.77;14.70;;;9.70;99.90;;;;;;4930951;28;20299;-71
2023/02/23 04:54:05;;;;;;;22.00;14.50;;;9.60;99.90;;;;;;4926597;28;20235;-72
2023/02/23 04:56:31;;;;;;;22.83;13.70;;;9.60;99.90;;;;;;4947451;28;20223;-71
2023/02/23 04:58:57;;;;;;;24.80;14.00;;;9.70;99.90;;;;;;4925984;29;20242;-71
2023/02/23 05:01:22;;;;;;;23.33;14.93;;;9.60;99.90;;;;;;4924250;28;20254;-72
2023/02/23 05:03:49;;;;;;;25.57;14.33;;;9.60;99.90;;;;;;4937166;28;20231;-72
2023/02/23 05:06:18;;;;;;;23.77;13.33;;;9.60;99.90;;;;;;4921294;29;20318;-71
2023/02/23 05:08:44;;;;;;;19.30;14.47;;;9.60;99.90;;;;;;4924466;29;20467;-72
2023/02/23 05:11:11;;;;;;;26.83;14.33;;;9.60;99.90;;;;;;4930903;28;20464;-71
2023/02/23 05:13:37;;;;;;;24.10;14.70;;;9.60;99.90;;;;;;4946636;28;20482;-71
2023/02/23 05:16:03;;;;;;;27.77;14.83;;;9.60;99.90;;;;;;4921223;29;20875;-70
2023/02/23 05:18:29;;;;;;;22.73;14.60;;;9.60;99.90;;;;;;4926003;28;20705;-71
2023/02/23 05:21:05;;;;;;;22.67;14.80;;;9.70;99.90;;;;;;4929452;28;20464;-71
2023/02/23 05:23:33;;;;;;;24.73;13.77;;;9.60;99.90;;;;;;4921756;28;20620;-71
2023/02/23 05:26:05;;;;;;;24.70;14.40;;;9.60;99.90;;;;;;4924297;29;20479;-71
2023/02/23 05:28:33;;;;;;;21.67;12.00;;;9.60;99.90;;;;;;4913690;28;20473;-72
2023/02/23 05:30:59;;;;;;;19.20;11.67;;;9.60;99.90;;;;;;4927982;28;20472;-72
2023/02/23 05:33:25;;;;;;;21.40;13.33;;;9.60;99.90;;;;;;4916922;28;20474;-71
2023/02/23 05:35:50;;;;;;;17.67;11.60;;;9.60;99.90;;;;;;4931367;28;20230;-71
2023/02/23 05:38:16;;;;;;;18.63;12.00;;;9.60;99.90;;;;;;4948412;28;20230;-71
2023/02/23 05:40:42;;;;;;;20.93;11.13;;;9.60;99.90;;;;;;4931231;29;21238;-71
2023/02/23 05:43:07;;;;;;;20.83;12.10;;;9.70;99.90;;;;;;4921802;29;20560;-71
2023/02/23 05:45:33;;;;;;;19.57;12.47;;;9.60;99.90;;;;;;4927498;29;20733;-72
2023/02/23 05:47:59;;;;;;;18.00;11.47;;;9.60;99.90;;;;;;4918585;29;20227;-71
2023/02/23 05:50:25;;;;;;;20.03;11.30;;;9.60;99.90;;;;;;4930654;29;20227;-72
2023/02/23 05:52:51;;;;;;;17.27;11.03;;;9.60;99.90;;;;;;4928856;29;20628;-71
2023/02/23 05:55:17;;;;;;;22.63;12.10;;;9.60;99.90;;;;;;4931041;29;20491;-70
2023/02/23 05:57:44;;;;;;;19.00;12.00;;;9.60;99.90;;;;;;4945964;28;20238;-71
2023/02/23 06:00:12;;;;;;;23.23;13.37;;;9.60;99.90;;;;;;4958184;28;20231;-70
2023/02/23 06:02:38;;;;;;;21.27;12.07;;;9.60;99.90;;;;;;4924189;28;20475;-70
2023/02/23 06:05:05;;;;;;;21.50;10.90;;;9.60;99.90;;;;;;4923687;29;20478;-70
2023/02/23 06:07:30;;;;;;;19.20;10.97;;;9.60;99.90;;;;;;4947335;28;20501;-71
2023/02/23 06:09:56;;;;;;;18.30;11.87;;;9.60;99.90;;;;;;4928339;29;20512;-72
2023/02/23 06:12:22;;;;;;;16.37;11.00;;;9.60;99.90;;;;;;4914758;29;20223;-71
2023/02/23 06:14:49;;;;;;;25.03;15.90;;;9.60;99.90;;;;;;4929094;29;20246;-71
2023/02/23 06:17:16;;;;;;;30.00;16.03;;;9.60;99.90;;;;;;4952389;28;20486;-72
2023/02/23 06:19:41;;;;;;;24.70;14.07;;;9.60;99.90;;;;;;4927526;29;20482;-71
2023/02/23 06:22:07;;;;;;;20.10;14.10;;;9.60;99.90;;;;;;4927371;28;20551;-72
2023/02/23 06:24:33;;;;;;;23.73;16.10;;;9.60;99.90;;;;;;4920500;28;20232;-70
2023/02/23 06:26:59;;;;;;;33.90;17.00;;;9.60;99.90;;;;;;4931684;29;20227;-71
2023/02/23 06:29:25;;;;;;;23.87;16.03;;;9.70;99.90;;;;;;4916403;28;20235;-69
2023/02/23 06:31:50;;;;;;;30.57;17.23;;;9.60;99.90;;;;;;4920492;28;20223;-72
2023/02/23 06:34:16;;;;;;;30.57;17.70;;;9.60;99.90;;;;;;4928468;29;20686;-71
2023/02/23 06:36:42;;;;;;;30.53;17.23;;;9.60;99.90;;;;;;4922528;28;20219;-70
2023/02/23 06:39:09;;;;;;;26.77;16.13;;;9.60;99.90;;;;;;4939023;28;20471;-72
2023/02/23 06:41:35;;;;;;;23.77;15.97;;;9.60;99.90;;;;;;4931602;28;20214;-72
2023/02/23 06:44:00;;;;;;;26.17;16.90;;;9.60;99.90;;;;;;4922421;29;20470;-70
2023/02/23 06:46:26;;;;;;;23.97;16.10;;;9.60;99.90;;;;;;4921532;29;20219;-71
2023/02/23 06:48:56;;;;;;;29.27;16.70;;;9.60;99.90;;;;;;4943645;28;20223;-72
2023/02/23 06:51:22;;;;;;;28.07;16.73;;;9.70;99.90;;;;;;4925610;28;20226;-71
2023/02/23 06:53:48;;;;;;;23.47;15.40;;;9.60;99.90;;;;;;4919038;29;21057;-72
2023/02/23 06:56:14;;;;;;;24.57;14.97;;;9.70;99.90;;;;;;4944264;28;20487;-72
2023/02/23 06:58:41;;;;;;;23.17;15.87;;;9.70;99.90;;;;;;4948696;28;20311;-70
2023/02/23 07:01:08;;;;;;;29.17;16.03;;;9.70;99.90;;;;;;4927134;29;20467;-72
2023/02/23 07:03:34;;;;;;;22.80;15.33;;;9.70;99.90;;;;;;4920577;29;20487;-70
2023/02/23 07:06:01;;;;;;;30.00;17.83;;;9.70;99.90;;;;;;4910492;29;20490;-72
2023/02/23 07:08:27;;;;;;;31.27;17.53;;;9.70;99.90;;;;;;4917669;28;20484;-72
2023/02/23 07:10:52;;;;;;;30.17;19.10;;;9.70;99.90;;;;;;4908846;29;20467;-72
2023/02/23 07:13:19;;;;;;;25.40;16.67;;;9.70;99.90;;;;;;4925908;28;20286;-71
2023/02/23 07:15:45;;;;;;;30.40;18.57;;;9.70;99.90;;;;;;4950893;28;20697;-71
2023/02/23 07:18:10;;;;;;;32.90;19.83;;;9.70;99.90;;;;;;4918764;29;20471;-71
2023/02/23 07:20:36;;;;;;;31.33;19.30;;;9.70;99.90;;;;;;4922420;29;20774;-72
2023/02/23 07:23:02;;;;;;;30.13;18.27;;;9.70;99.90;;;;;;4924541;29;20227;-71
2023/02/23 07:25:28;;;;;;;28.27;18.27;;;9.70;99.90;;;;;;4924296;28;20736;-71
2023/02/23 07:27:55;;;;;;;29.03;17.43;;;9.70;99.90;;;;;;4905742;29;20257;-72
2023/02/23 07:30:23;;;;;;;30.53;19.30;;;9.70;99.90;;;;;;4922501;28;20473;-71
2023/02/23 07:32:50;;;;;;;35.17;18.40;;;9.70;99.90;;;;;;4920577;29;20459;-71
2023/02/23 07:35:16;;;;;;;28.80;17.97;;;9.70;99.90;;;;;;4920598;29;21076;-71
2023/02/23 07:37:42;;;;;;;31.03;18.70;;;9.70;99.90;;;;;;4909523;28;20849;-72
2023/02/23 07:40:08;;;;;;;31.27;18.80;;;9.70;99.90;;;;;;4945569;28;20479;-73
2023/02/23 07:42:34;;;;;;;37.07;17.67;;;9.70;99.90;;;;;;4926976;28;20232;-71
2023/02/23 07:45:00;;;;;;;26.67;17.70;;;9.70;99.90;;;;;;4922335;29;20491;-72
2023/02/23 07:47:29;;;;;;;27.60;16.40;;;9.70;99.90;;;;;;4922169;29;20262;-71
2023/02/23 07:49:59;;;;;;;26.57;17.50;;;9.70;99.90;;;;;;4926245;29;20236;-71
2023/02/23 07:52:25;;;;;;;29.23;18.73;;;9.70;99.90;;;;;;4906094;29;20845;-71
2023/02/23 07:54:50;;;;;;;27.87;16.77;;;9.70;99.90;;;;;;4921942;28;20467;-72
2023/02/23 07:57:16;;;;;;;28.90;17.57;;;9.70;99.90;;;;;;4946919;28;20230;-73
2023/02/23 07:59:42;;;;;;;28.10;16.80;;;9.70;99.90;;;;;;4921096;29;20219;-72
2023/02/23 08:02:11;;;;;;;30.10;18.27;;;9.80;99.90;;;;;;4904044;29;21040;-72
2023/02/23 08:04:37;;;;;;;25.53;17.13;;;9.80;99.90;;;;;;4926857;28;20583;-71
2023/02/23 08:07:03;;;;;;;25.80;16.90;;;9.80;99.90;;;;;;4928199;29;20829;-70
2023/02/23 08:09:31;;;;;;;27.57;16.50;;;9.80;99.90;;;;;;4954760;28;20471;-71
2023/02/23 08:11:57;;;;;;;21.97;15.30;;;9.80;99.90;;;;;;4929091;28;20228;-72
2023/02/23 08:14:23;;;;;;;30.87;18.00;;;9.90;99.90;;;;;;4923408;28;20513;-72
2023/02/23 08:16:48;;;;;;;33.10;17.40;;;9.90;99.90;;;;;;4940298;28;20231;-72
2023/02/23 08:19:14;;;;;;;37.53;19.80;;;9.90;99.90;;;;;;4925958;29;20230;-71
2023/02/23 08:21:42;;;;;;;35.63;22.07;;;9.90;99.90;;;;;;4927028;28;20306;-71
2023/02/23 08:24:09;;;;;;;40.43;22.13;;;10.00;99.90;;;;;;4938597;28;20224;-72
2023/02/23 08:26:37;;;;;;;30.87;19.00;;;10.00;99.90;;;;;;4946902;28;21008;-71
2023/02/23 08:29:03;;;;;;;29.20;19.00;;;10.00;99.90;;;;;;4927318;29;20462;-72
2023/02/23 08:31:29;;;;;;;31.23;19.60;;;10.00;99.90;;;;;;4925878;29;20460;-70
2023/02/23 08:33:54;;;;;;;28.13;16.57;;;10.00;99.90;;;;;;4922635;29;20525;-72
2023/02/23 08:36:20;;;;;;;29.33;17.27;;;10.00;99.90;;;;;;4919304;29;20458;-72
2023/02/23 08:38:46;;;;;;;29.73;15.83;;;10.00;99.90;;;;;;4927786;28;20322;-72
2023/02/23 08:41:12;;;;;;;29.23;16.90;;;10.00;99.90;;;;;;4928487;28;20234;-72
2023/02/23 08:43:38;;;;;;;27.67;15.50;;;10.00;99.90;;;;;;4917859;29;20476;-71
2023/02/23 08:46:05;;;;;;;27.00;17.60;;;10.00;99.90;;;;;;4925994;29;20483;-72
2023/02/23 08:48:31;;;;;;;27.40;15.90;;;10.10;99.90;;;;;;4919963;29;20314;-72
2023/02/23 08:50:57;;;;;;;23.37;15.20;;;10.10;99.90;;;;;;4915750;29;20459;-71
2023/02/23 08:53:26;;;;;;;27.60;15.83;;;10.10;99.90;;;;;;4923831;29;20459;-72
2023/02/23 08:55:59;;;;;;;31.30;15.67;;;10.10;99.90;;;;;;4916836;29;20478;-72
2023/02/23 08:58:26;;;;;;;22.63;14.37;;;10.20;99.90;;;;;;4920553;28;21076;-70
2023/02/23 09:00:52;;;;;;;25.93;16.53;;;10.20;99.90;;;;;;4926687;28;21006;-72
2023/02/23 09:03:20;;;;;;;25.50;15.87;;;10.20;99.90;;;;;;4923897;28;20467;-73
2023/02/23 09:05:45;;;;;;;24.30;14.57;;;10.20;99.90;;;;;;4922776;28;20327;-72
2023/02/23 09:08:12;;;;;;;21.50;13.70;;;10.20;99.90;;;;;;4923172;29;20478;-71
2023/02/23 09:10:38;;;;;;;21.83;13.10;;;10.30;99.90;;;;;;4921930;28;20235;-72
2023/02/23 09:13:03;;;;;;;19.33;11.20;;;10.50;99.90;;;;;;4929612;29;20465;-72
2023/02/23 09:15:29;;;;;;;18.83;11.70;;;10.70;99.90;;;;;;4940699;28;20467;-72
2023/02/23 09:18:01;;;;;;;21.30;11.27;;;10.80;99.90;;;;;;4927905;28;20762;-72
2023/02/23 09:20:27;;;;;;;16.87;11.40;;;10.90;99.90;;;;;;4927659;29;20235;-71
2023/02/23 09:22:54;;;;;;;16.00;9.70;;;10.90;99.90;;;;;;4946918;28;20466;-71
2023/02/23 09:25:24;;;;;;;14.60;9.20;;;10.90;99.90;;;;;;4920538;29;20478;-72
2023/02/23 09:27:52;;;;;;;19.70;10.93;;;11.10;99.90;;;;;;4919380;29;20606;-72
2023/02/23 09:30:19;;;;;;;17.17;10.73;;;11.10;99.90;;;;;;4944565;28;20471;-72
2023/02/23 09:32:53;;;;;;;23.10;11.37;;;11.20;99.90;;;;;;4922215;29;20554;-72
2023/02/23 09:35:20;;;;;;;17.80;12.13;;;11.30;99.90;;;;;;4927256;29;20486;-73
2023/02/23 09:37:53;;;;;;;18.97;11.97;;;11.30;99.90;;;;;;4928104;29;20452;-72
2023/02/23 09:40:43;;;;;;;16.30;10.97;;;11.40;99.90;;;;;;4926936;29;20478;-71
2023/02/23 09:43:15;;;;;;;16.10;11.40;;;11.50;99.90;;;;;;4944750;28;20469;-72
2023/02/23 09:45:52;;;;;;;16.90;11.67;;;11.60;99.90;;;;;;4944297;28;20534;-70
2023/02/23 09:48:24;;;;;;;15.03;10.73;;;11.60;99.90;;;;;;4927436;29;20485;-72
2023/02/23 09:50:55;;;;;;;15.70;11.33;;;11.60;99.90;;;;;;4927301;28;20478;-72
2023/02/23 09:53:46;;;;;;;11.60;9.43;;;11.70;99.90;;;;;;4921723;29;20499;-72
2023/02/23 09:56:30;;;;;;;13.57;9.90;;;11.80;99.90;;;;;;4926500;28;20483;-71
2023/02/23 09:58:57;;;;;;;16.50;11.23;;;11.80;99.90;;;;;;4947700;28;20606;-72
2023/02/23 10:01:47;;;;;;;13.50;8.60;;;11.80;99.90;;;;;;4937827;29;21056;-72
2023/02/23 10:04:37;;;;;;;12.00;7.83;;;11.80;99.90;;;;;;4919316;28;20478;-73
2023/02/23 10:07:29;;;;;;;12.90;8.80;;;11.90;99.90;;;;;;4922274;29;20504;-70
2023/02/23 10:10:16;;;;;;;15.30;11.03;;;11.90;99.90;;;;;;4920532;29;21028;-72
2023/02/23 10:13:12;;;;;;;13.17;10.67;;;11.80;99.90;;;;;;4944345;28;20451;-72
2023/02/23 10:16:05;;;;;;;17.63;10.70;;;11.90;99.90;;;;;;4946513;28;20513;-71
2023/02/23 10:18:43;;;;;;;14.93;10.20;;;12.00;99.90;;;;;;4913080;29;20467;-72
2023/02/23 10:21:15;;;;;;;15.83;8.30;;;12.00;99.90;;;;;;4923458;29;20478;-72
2023/02/23 10:23:57;;;;;;;11.63;7.37;;;12.00;99.90;;;;;;4937510;28;20464;-71
2023/02/23 10:26:33;;;;;;;9.00;6.57;;;12.00;99.90;;;;;;4924492;29;20644;-72
2023/02/23 10:28:59;;;;;;;14.67;7.57;;;12.00;99.90;;;;;;4927026;29;20547;-73
2023/02/23 10:31:43;;;;;;;9.37;7.20;;;12.10;99.90;;;;;;4927498;28;20895;-71
2023/02/23 10:34:15;;;;;;;17.50;11.40;;;12.10;99.90;;;;;;4911370;29;20474;-72
2023/02/23 10:36:51;;;;;;;31.40;19.50;;;12.20;99.90;;;;;;4926053;29;20924;-71
2023/02/23 10:39:17;;;;;;;102.63;54.57;;;12.20;99.90;;;;;;4931507;28;20553;-72
2023/02/23 10:41:43;;;;;;;56.83;34.13;;;12.20;99.90;;;;;;4933473;28;20439;-72
2023/02/23 10:44:24;;;;;;;44.07;26.83;;;12.20;99.90;;;;;;4907609;29;20559;-72
2023/02/23 10:47:10;;;;;;;58.00;34.27;;;12.20;99.90;;;;;;4939233;28;20481;-72
2023/02/23 10:49:48;;;;;;;32.97;20.33;;;12.20;99.90;;;;;;4917772;28;20981;-72
2023/02/23 10:52:48;;;;;;;29.17;18.80;;;12.20;99.90;;;;;;4905031;29;20557;-73
2023/02/23 10:55:27;;;;;;;19.00;12.87;;;12.20;99.90;;;;;;4912693;28;20527;-74
2023/02/23 10:58:08;;;;;;;14.10;9.30;;;12.20;99.90;;;;;;4916353;28;20463;-73
2023/02/23 11:00:38;;;;;;;12.17;7.30;;;12.20;99.90;;;;;;4920173;28;20482;-71
2023/02/23 11:03:21;;;;;;;13.07;6.70;;;12.10;99.90;;;;;;4928494;29;20573;-72
2023/02/23 11:05:52;;;;;;;19.17;7.40;;;12.10;99.90;;;;;;4937389;28;20470;-72
2023/02/23 11:08:28;;;;;;;15.27;7.23;;;12.10;99.90;;;;;;4926638;28;21044;-72
2023/02/23 11:11:14;;;;;;;12.07;7.63;;;12.10;99.90;;;;;;4942361;28;20549;-73
2023/02/23 11:13:48;;;;;;;15.13;7.53;;;12.00;99.90;;;;;;4919566;28;20478;-72
2023/02/23 11:16:20;;;;;;;13.83;6.50;;;12.00;99.90;;;;;;4922517;29;20459;-72
2023/02/23 11:19:03;;;;;;;10.57;5.87;;;12.00;99.90;;;;;;4917034;29;20464;-73
2023/02/23 11:21:37;;;;;;;19.60;12.67;;;12.10;99.90;;;;;;4912843;28;20942;-73
2023/02/23 11:24:30;;;;;;;40.80;25.57;;;12.00;99.90;;;;;;4923081;28;20456;-72
2023/02/23 11:27:02;;;;;;;49.57;30.47;;;12.00;99.90;;;;;;4922273;28;20483;-72
2023/02/23 11:29:34;;;;;;;44.87;26.00;;;12.00;99.90;;;;;;4924565;28;20550;-70
2023/02/23 11:32:14;;;;;;;32.27;20.07;;;12.00;99.90;;;;;;4924802;29;20478;-72
2023/02/23 11:34:42;;;;;;;20.70;12.30;;;12.10;99.90;;;;;;4947455;28;20997;-70
2023/02/23 11:37:20;;;;;;;15.33;9.80;;;12.10;99.90;;;;;;4918709;29;20612;-72
2023/02/23 11:39:51;;;;;;;12.50;9.27;;;12.00;99.90;;;;;;4919764;28;20445;-72
2023/02/23 11:42:18;;;;;;;12.10;8.20;;;12.00;99.90;;;;;;4924905;28;20847;-73
2023/02/23 11:45:19;;;;;;;12.10;7.90;;;12.00;99.90;;;;;;4922508;29;20849;-72
2023/02/23 11:47:53;;;;;;;12.27;8.67;;;12.00;99.90;;;;;;4922869;29;20535;-72
2023/02/23 11:50:26;;;;;;;10.83;7.20;;;12.00;99.90;;;;;;4926852;28;20487;-72
2023/02/23 11:53:16;;;;;;;15.37;8.07;;;12.10;99.90;;;;;;4941919;28;20484;-72
2023/02/23 11:55:51;;;;;;;14.00;8.23;;;12.10;99.90;;;;;;4902233;28;20901;-72
2023/02/23 11:58:36;;;;;;;13.90;7.30;;;12.10;99.90;;;;;;4921096;29;20475;-72
2023/02/23 12:01:11;;;;;;;11.30;7.30;;;12.10;99.90;;;;;;4928384;29;20980;-72
2023/02/23 12:03:59;;;;;;;11.57;7.20;;;12.10;99.90;;;;;;4909574;28;20538;-72
2023/02/23 12:06:39;;;;;;;8.77;6.23;;;12.10;99.90;;;;;;4925091;29;20518;-71
2023/02/23 12:09:26;;;;;;;9.17;5.83;;;12.20;99.90;;;;;;4928845;29;20470;-72
2023/02/23 12:12:03;;;;;;;9.73;6.40;;;12.20;99.90;;;;;;4923008;29;20486;-72
2023/02/23 12:14:50;;;;;;;9.67;7.00;;;12.20;99.90;;;;;;4927800;28;20471;-73
2023/02/23 12:17:22;;;;;;;8.80;5.57;;;12.30;99.90;;;;;;4927746;29;20474;-73
2023/02/23 12:19:55;;;;;;;10.70;6.30;;;12.40;99.90;;;;;;4922071;29;20495;-72
2023/02/23 12:22:25;;;;;;;9.90;7.23;;;12.40;99.90;;;;;;4901914;29;21002;-71
2023/02/23 12:25:03;;;;;;;10.97;7.23;;;12.40;99.90;;;;;;4928687;28;20467;-73
2023/02/23 12:27:40;;;;;;;13.77;9.90;;;12.50;99.90;;;;;;4923692;29;20907;-72
2023/02/23 12:30:21;;;;;;;11.10;8.27;;;12.50;99.90;;;;;;4926684;28;20899;-72
2023/02/23 12:33:16;;;;;;;12.80;9.47;;;12.60;99.90;;;;;;4927387;29;20448;-72
2023/02/23 12:35:47;;;;;;;11.23;7.67;;;12.60;99.90;;;;;;4921813;28;20470;-74
2023/02/23 12:38:29;;;;;;;9.60;6.47;;;12.50;99.90;;;;;;4926036;29;20475;-72
2023/02/23 12:41:04;;;;;;;8.03;5.23;;;12.50;99.90;;;;;;4930558;29;20470;-72
2023/02/23 12:43:55;;;;;;;8.13;6.00;;;12.50;99.90;;;;;;4946485;28;20481;-73
2023/02/23 12:46:33;;;;;;;7.47;5.70;;;12.50;99.90;;;;;;4946314;28;20482;-72
2023/02/23 12:49:30;;;;;;;9.07;6.27;;;12.50;99.90;;;;;;4941306;28;20508;-71
2023/02/23 12:52:07;;;;;;;9.40;5.50;;;12.50;99.90;;;;;;4917858;29;20464;-73
2023/02/23 12:54:34;;;;;;;8.40;5.53;;;12.60;99.90;;;;;;4944426;28;20488;-71
2023/02/23 12:57:18;;;;;;;7.60;5.77;;;12.60;99.90;;;;;;4920622;29;20502;-73
2023/02/23 13:00:33;;;;;;;6.97;5.37;;;12.70;99.90;;;;;;4944741;28;20466;-73
2023/02/23 13:03:10;;;;;;;6.27;5.10;;;12.70;99.90;;;;;;4899530;29;20630;-72
2023/02/23 13:05:44;;;;;;;7.97;5.93;;;12.70;99.90;;;;;;4898875;29;20510;-71
2023/02/23 13:08:28;;;;;;;7.43;6.00;;;12.70;99.90;;;;;;4917937;29;20467;-72
2023/02/23 13:11:23;;;;;;;8.60;6.33;;;12.70;99.90;;;;;;4924043;29;20985;-72
2023/02/23 13:13:54;;;;;;;8.00;5.70;;;12.70;99.90;;;;;;4910975;29;20901;-73
2023/02/23 13:16:41;;;;;;;10.93;6.00;;;12.70;99.90;;;;;;4922741;28;20472;-72
2023/02/23 13:19:21;;;;;;;6.00;4.40;;;12.70;99.90;;;;;;4925099;28;20491;-72
2023/02/23 13:22:14;;;;;;;6.57;4.83;;;12.70;99.90;;;;;;4944778;28;20454;-72
2023/02/23 13:24:45;;;;;;;8.23;5.90;;;12.70;99.90;;;;;;4922549;28;20498;-71
2023/02/23 13:27:20;;;;;;;6.33;4.90;;;12.70;99.90;;;;;;4928620;28;20974;-73
2023/02/23 13:29:48;;;;;;;7.27;5.17;;;12.70;99.90;;;;;;4942818;28;20518;-72
2023/02/23 13:32:24;;;;;;;7.83;5.60;;;12.70;99.90;;;;;;4926668;29;20479;-72
2023/02/23 13:35:02;;;;;;;7.97;5.90;;;12.70;99.90;;;;;;4927818;29;20460;-72
2023/02/23 13:37:31;;;;;;;8.70;5.53;;;12.70;99.90;;;;;;4926504;28;20539;-73
2023/02/23 13:40:35;;;;;;;10.60;5.90;;;12.60;99.90;;;;;;4932010;28;20476;-73
2023/02/23 13:43:06;;;;;;;11.00;5.53;;;12.60;99.90;;;;;;4940609;28;20820;-71
2023/02/23 13:45:47;;;;;;;8.93;5.37;;;12.60;99.90;;;;;;4923711;28;20554;-73
2023/02/23 13:48:34;;;;;;;9.20;6.10;;;12.60;99.90;;;;;;4910867;29;20478;-72
2023/02/23 13:51:17;;;;;;;9.50;7.00;;;12.70;99.90;;;;;;4923074;29;20479;-73
2023/02/23 13:53:58;;;;;;;7.00;6.07;;;12.60;99.90;;;;;;4926042;28;20475;-72
2023/02/23 13:56:27;;;;;;;9.77;7.17;;;12.60;99.90;;;;;;4941062;28;20471;-72
2023/02/23 13:59:08;;;;;;;10.57;6.40;;;12.60;99.90;;;;;;4925972;29;20580;-72
2023/02/23 14:01:44;;;;;;;13.07;7.10;;;12.50;99.90;;;;;;4919270;29;20488;-71
2023/02/23 14:04:25;;;;;;;9.53;6.33;;;12.50;99.90;;;;;;4929095;29;20557;-72
2023/02/23 14:07:01;;;;;;;9.47;6.03;;;12.60;99.90;;;;;;4948576;28;20463;-72
2023/02/23 14:09:35;;;;;;;11.10;6.73;;;12.50;99.90;;;;;;4911231;29;20871;-72
2023/02/23 14:12:03;;;;;;;10.30;6.87;;;12.50;99.90;;;;;;4931936;29;20466;-72
2023/02/23 14:14:31;;;;;;;9.80;7.50;;;12.50;99.90;;;;;;4927993;29;20850;-72
2023/02/23 14:17:11;;;;;;;8.67;5.93;;;12.40;99.90;;;;;;4928028;29;20450;-71
2023/02/23 14:19:40;;;;;;;9.80;7.10;;;12.40;99.90;;;;;;4919839;28;20464;-72
2023/02/23 14:22:14;;;;;;;9.20;7.00;;;12.40;99.90;;;;;;4923524;29;20463;-72